Pagina principale
METAR-TAF:

METAR-TAF

Aeroporti :

Chulitna, Alaska, Stati Uniti

latitudine: 62-53N, longitudine: 149-50W, altezza: 381 m

Osservazione

Il bollettino è stato emesso 3 ore e 53 minuti fa, alle 02:47 UTC
Vento calmo
Temperature 6°C
Umidità 100%
Pressione 1000 hPa
Visibilità: 1.6 km
Cielo coperto ad un'altezza di 1000 ft
pioggia debole, foschia

METAR: PAEC 230247Z 00000KT 1SM -RA BR OVC010 06/06 A2953 RMK NOCPECI LAST

Ora: 22:40 (06:40 UTC)


TAF: mancante

Osservazioni e previsioni meteorologiche di più di 4000 aeroporti (messaggi METAR e TAF).

Le stazioni disponibili sono rappresentate dai dischi gialli e rossi sulla carta.

Puntare il mouse per vedere il nome della stazione.

Clicca sopra per visualizzare le osservazioni e previsioni meteorologiche.

Per cambiare la mappa : fare clic sui pulsanti verdi con una croce nera per ingrandire, il pulsante verde con un trattino per diminuire, o sulla freccia verde per le mappe adiacenti.


METAR-TAF: